Terminal Aerodrome Forecast
Issued by NWS

Home | Current Version | Previous Version | Graphics & Text | Print | Product List | Glossary On
Versions: 1 2 3 4 5 6 7 8 9 10 11 12 13 14
112
FTUS45 KGGW 301733
TAFSDY
TAF
KSDY 301733Z 3018/3118 31008KT P6SM -SHRA SCT050 OVC070
     FM302100 31008KT 6SM SHRA BR OVC035
     FM310000 30008KT P6SM -SHRA BKN060
     FM310900 28012KT P6SM VCSH BKN015
     FM311200 27010KT P6SM -SHRA BKN007=

USA.gov is the U.S. government's official web portal to all federal, state and local government web resources and services.